Time;durP1;ratioP1;P1;durP2;ratioP2;P2;SDS_P1;SDS_P2;PMS_P1;PMS_P2;Temp;Humidity;BMP_temperature;BMP_pressure;BME280_temperature;BME280_humidity;BME280_pressure;Samples;Min_cycle;Max_cycle;Signal;HPM_P1;HPM_P2
2023/06/10 00:01:06;;;;;;;11.40;4.75;;;;;;;15.26;100.00;101729.91;6245288;22;20239;-76
2023/06/10 00:03:51;;;;;;;8.73;5.07;;;;;;;15.23;100.00;101730.06;6244863;23;20073;-75
2023/06/10 00:06:35;;;;;;;8.63;4.93;;;;;;;15.19;100.00;101732.03;6212985;23;20467;-75
2023/06/10 00:09:20;;;;;;;9.38;4.63;;;;;;;15.16;100.00;101729.50;6235332;23;20030;-75
2023/06/10 00:12:06;;;;;;;8.45;4.45;;;;;;;15.14;100.00;101725.22;6235284;23;20039;-76
2023/06/10 00:14:53;;;;;;;7.95;4.45;;;;;;;15.13;100.00;101720.81;6244692;23;20034;-76
2023/06/10 00:17:40;;;;;;;7.80;4.70;;;;;;;15.11;100.00;101731.56;6222665;23;20042;-76
2023/06/10 00:20:25;;;;;;;10.00;4.60;;;;;;;15.09;100.00;101732.59;6213224;23;20027;-75
2023/06/10 00:23:11;;;;;;;8.00;4.80;;;;;;;15.07;100.00;101730.88;6246221;23;20015;-74
2023/06/10 00:25:56;;;;;;;10.25;4.70;;;;;;;15.05;100.00;101732.72;6172569;23;20102;-75
2023/06/10 00:28:39;;;;;;;7.40;4.45;;;;;;;15.04;100.00;101741.66;6241650;23;20023;-75
2023/06/10 00:31:26;;;;;;;9.40;4.78;;;;;;;15.02;100.00;101732.88;6244800;23;20034;-76
2023/06/10 00:34:12;;;;;;;7.88;4.88;;;;;;;15.01;100.00;101740.97;6222469;23;20104;-76
2023/06/10 00:36:55;;;;;;;11.38;4.78;;;;;;;15.00;100.00;101734.78;6245852;23;20155;-76
2023/06/10 00:39:39;;;;;;;8.57;4.53;;;;;;;14.99;100.00;101738.34;6245864;23;20019;-75
2023/06/10 00:42:24;;;;;;;9.15;4.45;;;;;;;14.97;100.00;101742.91;6246129;23;20035;-75
2023/06/10 00:45:08;;;;;;;7.00;4.13;;;;;;;14.96;100.00;101748.31;6213119;23;20085;-76
2023/06/10 00:47:53;;;;;;;7.22;4.32;;;;;;;14.95;100.00;101747.47;6224323;23;20356;-75
2023/06/10 00:50:39;;;;;;;7.40;4.85;;;;;;;14.95;100.00;101747.47;6191704;23;20011;-74
2023/06/10 00:53:25;;;;;;;7.15;4.20;;;;;;;14.94;100.00;101745.75;6223875;23;20398;-75
2023/06/10 00:56:10;;;;;;;8.75;4.30;;;;;;;14.91;100.00;101737.88;6225020;23;20106;-76
2023/06/10 00:58:54;;;;;;;10.50;4.40;;;;;;;14.88;100.00;101741.56;6213739;23;20026;-76
2023/06/10 01:01:39;;;;;;;8.27;4.60;;;;;;;14.87;100.00;101745.19;6222783;23;20015;-76
2023/06/10 01:04:23;;;;;;;8.15;4.35;;;;;;;14.86;100.00;101743.44;6221389;23;20099;-75
2023/06/10 01:07:27;;;;;;;7.88;4.32;;;;;;;14.85;100.00;101746.19;6245737;23;20196;-76
2023/06/10 01:10:17;;;;;;;7.30;4.55;;;;;;;14.83;100.00;101742.75;6191789;23;20051;-76
2023/06/10 01:13:02;;;;;;;7.68;4.82;;;;;;;14.79;100.00;101742.91;6222587;23;20448;-75
2023/06/10 01:15:47;;;;;;;7.20;4.68;;;;;;;14.76;100.00;101748.38;6191256;23;20229;-75
2023/06/10 01:18:31;;;;;;;7.03;4.07;;;;;;;14.73;100.00;101748.50;6212968;23;20018;-76
2023/06/10 01:21:26;;;;;;;8.20;4.53;;;;;;;14.70;100.00;101758.44;6201562;23;20102;-75
2023/06/10 01:24:10;;;;;;;7.40;4.45;;;;;;;14.65;100.00;101755.97;6223314;23;20134;-75
2023/06/10 01:26:55;;;;;;;8.68;4.38;;;;;;;14.61;100.00;101755.25;6222367;23;20027;-76
2023/06/10 01:29:45;;;;;;;7.43;4.45;;;;;;;14.60;100.00;101758.03;6190472;23;20396;-75
2023/06/10 01:32:34;;;;;;;7.57;4.65;;;;;;;14.57;100.00;101753.69;6222211;23;20024;-76
2023/06/10 01:35:21;;;;;;;7.45;4.90;;;;;;;14.53;100.00;101757.44;6221494;23;20074;-74
2023/06/10 01:38:06;;;;;;;9.80;4.68;;;;;;;14.50;100.00;101752.28;6222215;23;20054;-75
2023/06/10 01:40:51;;;;;;;9.40;4.35;;;;;;;14.46;100.00;101753.34;6221696;23;20558;-75
2023/06/10 01:43:37;;;;;;;7.43;4.88;;;;;;;14.43;100.00;101751.69;6190463;23;20031;-75
2023/06/10 01:46:22;;;;;;;6.47;4.18;;;;;;;14.44;100.00;101752.56;6223450;23;20069;-74
2023/06/10 01:49:06;;;;;;;7.03;4.72;;;;;;;14.42;100.00;101751.78;6215025;23;20027;-75
2023/06/10 01:51:50;;;;;;;6.57;4.53;;;;;;;14.42;100.00;101749.97;6203235;23;20102;-75
2023/06/10 01:54:34;;;;;;;8.18;4.72;;;;;;;14.41;100.00;101756.22;6247674;23;20108;-76
2023/06/10 01:57:19;;;;;;;8.15;4.30;;;;;;;14.39;100.00;101756.28;6224965;23;20019;-75
2023/06/10 02:00:03;;;;;;;8.55;4.72;;;;;;;14.38;100.00;101757.25;6215344;23;20482;-76
2023/06/10 02:02:48;;;;;;;9.63;4.57;;;;;;;14.37;100.00;101751.97;6194131;23;20019;-75
2023/06/10 02:05:32;;;;;;;10.23;4.60;;;;;;;14.36;100.00;101750.25;6248623;23;20023;-73
2023/06/10 02:08:15;;;;;;;7.78;4.53;;;;;;;14.37;100.00;101757.28;6248720;23;20085;-74
2023/06/10 02:10:59;;;;;;;9.05;4.78;;;;;;;14.34;100.00;101752.97;6248735;23;20605;-74
2023/06/10 02:13:43;;;;;;;14.18;4.78;;;;;;;14.32;100.00;101752.19;6214500;23;20095;-74
2023/06/10 02:16:27;;;;;;;7.70;4.68;;;;;;;14.31;100.00;101752.25;6248886;23;20027;-74
2023/06/10 02:19:12;;;;;;;7.43;4.75;;;;;;;14.28;100.00;101750.63;6247972;23;20042;-75
2023/06/10 02:21:56;;;;;;;8.75;4.85;;;;;;;14.26;100.00;101757.81;6248454;23;20031;-76
2023/06/10 02:24:40;;;;;;;6.82;4.55;;;;;;;14.23;100.00;101757.97;6248955;23;20035;-75
2023/06/10 02:27:24;;;;;;;7.15;4.60;;;;;;;14.21;100.00;101759.81;6216473;23;20030;-75
2023/06/10 02:30:10;;;;;;;7.95;4.03;;;;;;;14.18;100.00;101757.31;6238703;23;20043;-75
2023/06/10 02:32:56;;;;;;;8.23;4.95;;;;;;;14.17;100.00;101758.25;6239014;23;20027;-75
2023/06/10 02:35:40;;;;;;;9.70;4.68;;;;;;;14.15;100.00;101760.97;6248708;23;20050;-76
2023/06/10 02:38:24;;;;;;;6.55;4.93;;;;;;;14.13;100.00;101758.38;6224415;23;20023;-76
2023/06/10 02:41:08;;;;;;;10.98;5.22;;;;;;;14.12;100.00;101758.47;6224664;23;20099;-76
2023/06/10 02:43:52;;;;;;;10.10;5.35;;;;;;;14.09;100.00;101764.78;6248795;23;20027;-75
2023/06/10 02:46:36;;;;;;;9.13;4.93;;;;;;;14.05;100.00;101771.16;6247503;23;20019;-75
2023/06/10 02:49:20;;;;;;;10.38;5.50;;;;;;;14.01;100.00;101758.06;6215110;23;20074;-74
2023/06/10 02:52:04;;;;;;;7.03;4.47;;;;;;;13.99;100.00;101763.47;6248038;23;20019;-74
2023/06/10 02:54:48;;;;;;;8.38;5.10;;;;;;;13.96;100.00;101756.47;6247506;23;20059;-75
2023/06/10 02:57:32;;;;;;;10.30;5.35;;;;;;;13.93;100.00;101772.59;6248399;23;20015;-75
2023/06/10 03:00:17;;;;;;;10.85;5.03;;;;;;;13.91;100.00;101771.81;6237430;22;20034;-76
2023/06/10 03:03:03;;;;;;;7.93;4.80;;;;;;;13.87;100.00;101764.88;6248396;23;20077;-75
2023/06/10 03:05:47;;;;;;;8.23;4.80;;;;;;;13.86;100.00;101771.16;6214902;23;20768;-76
2023/06/10 03:08:31;;;;;;;8.20;5.18;;;;;;;13.82;100.00;101769.53;6194246;23;20023;-76
2023/06/10 03:11:15;;;;;;;7.95;5.10;;;;;;;13.80;100.00;101772.28;6225362;23;20074;-75
2023/06/10 03:13:59;;;;;;;10.25;5.00;;;;;;;13.78;100.00;101778.63;6248222;23;20014;-73
2023/06/10 03:16:44;;;;;;;7.30;5.25;;;;;;;13.77;100.00;101775.06;6248792;23;20085;-75
2023/06/10 03:19:28;;;;;;;9.60;5.32;;;;;;;13.74;100.00;101769.91;6237824;23;20023;-74
2023/06/10 03:22:20;;;;;;;9.27;4.93;;;;;;;13.73;100.00;101775.28;6247876;23;20189;-74
2023/06/10 03:25:05;;;;;;;9.65;4.93;;;;;;;13.71;100.00;101772.69;6249112;23;20074;-73
2023/06/10 03:27:50;;;;;;;7.90;5.15;;;;;;;13.69;100.00;101771.91;6248309;23;20023;-74
2023/06/10 03:30:35;;;;;;;10.18;5.38;;;;;;;13.68;100.00;101771.00;6236225;23;20209;-76
2023/06/10 03:33:19;;;;;;;8.43;5.07;;;;;;;13.67;100.00;101771.09;6215332;23;20062;-74
2023/06/10 03:36:04;;;;;;;9.80;4.88;;;;;;;13.66;100.00;101772.88;6248598;23;20054;-75
2023/06/10 03:38:50;;;;;;;8.25;4.88;;;;;;;13.65;100.00;101773.81;6248870;23;20130;-74
2023/06/10 03:41:35;;;;;;;7.00;4.85;;;;;;;13.64;100.00;101768.56;6237976;23;20058;-74
2023/06/10 03:44:19;;;;;;;8.00;5.47;;;;;;;13.64;100.00;101772.09;6225402;23;20031;-75
2023/06/10 03:47:03;;;;;;;6.43;4.38;;;;;;;13.63;100.00;101773.03;6239032;23;20015;-75
2023/06/10 03:49:46;;;;;;;9.15;4.80;;;;;;;13.64;100.00;101771.22;6248095;23;20073;-73
2023/06/10 03:52:31;;;;;;;8.90;4.35;;;;;;;13.63;100.00;101772.16;6224865;23;20043;-74
2023/06/10 03:55:16;;;;;;;8.77;4.28;;;;;;;13.64;100.00;101771.22;6248032;23;20090;-75
2023/06/10 03:58:00;;;;;;;7.13;4.57;;;;;;;13.64;100.00;101772.09;6215576;23;20019;-76
2023/06/10 04:00:45;;;;;;;6.20;4.32;;;;;;;13.65;100.00;101771.16;6213584;23;20074;-75
2023/06/10 04:03:29;;;;;;;7.60;4.65;;;;;;;13.66;100.00;101777.34;6234416;23;20078;-75
2023/06/10 04:06:13;;;;;;;8.73;4.85;;;;;;;13.67;100.00;101774.63;6214293;23;20483;-76
2023/06/10 04:08:57;;;;;;;8.23;4.13;;;;;;;13.67;100.00;101779.09;6235811;23;20019;-75
2023/06/10 04:11:41;;;;;;;10.88;4.03;;;;;;;13.68;100.00;101775.50;6223937;23;20207;-75
2023/06/10 04:14:25;;;;;;;7.55;4.38;;;;;;;13.68;100.00;101779.00;6247684;23;20564;-75
2023/06/10 04:17:09;;;;;;;6.40;4.00;;;;;;;13.70;100.00;101779.81;6215199;23;20043;-76
2023/06/10 04:19:54;;;;;;;6.50;4.10;;;;;;;13.72;100.00;101779.72;6224438;23;20043;-75
2023/06/10 04:22:38;;;;;;;7.18;4.35;;;;;;;13.73;100.00;101781.44;6225696;23;20479;-75
2023/06/10 04:25:22;;;;;;;5.35;3.97;;;;;;;13.75;100.00;101776.94;6247938;23;20038;-75
2023/06/10 04:28:07;;;;;;;9.00;4.30;;;;;;;13.79;100.00;101790.97;6202894;23;20483;-75
2023/06/10 04:30:51;;;;;;;6.55;3.85;;;;;;;13.81;100.00;101794.44;6225953;23;20031;-74
2023/06/10 04:33:35;;;;;;;7.38;4.00;;;;;;;13.83;100.00;101795.22;6203813;23;20086;-76
2023/06/10 04:36:19;;;;;;;5.70;3.75;;;;;;;13.87;100.00;101799.50;6193776;23;20062;-75
2023/06/10 04:39:05;;;;;;;8.10;4.10;;;;;;;13.90;100.00;101794.00;6224911;23;20035;-74
2023/06/10 04:41:49;;;;;;;5.32;3.80;;;;;;;13.94;100.00;101797.44;6249206;23;20031;-75
2023/06/10 04:44:33;;;;;;;6.57;3.88;;;;;;;13.98;100.00;101797.22;6247929;23;20108;-74
2023/06/10 04:47:17;;;;;;;7.03;4.40;;;;;;;14.05;100.00;101804.94;6236106;23;20418;-74
2023/06/10 04:50:01;;;;;;;6.20;3.70;;;;;;;14.09;100.00;101802.06;6237244;23;20877;-74
2023/06/10 04:52:45;;;;;;;8.30;4.00;;;;;;;14.13;100.00;101798.31;6247475;23;20075;-75
2023/06/10 04:55:29;;;;;;;5.70;3.72;;;;;;;14.19;100.00;101801.63;6248368;23;20031;-76
2023/06/10 04:58:14;;;;;;;6.43;3.90;;;;;;;14.24;100.00;101808.50;6237381;23;20341;-76
2023/06/10 05:00:59;;;;;;;6.53;4.13;;;;;;;14.30;100.00;101803.81;6235961;22;20058;-75
2023/06/10 05:03:43;;;;;;;8.27;4.00;;;;;;;14.36;100.00;101811.50;6237958;23;20012;-76
2023/06/10 05:06:27;;;;;;;7.63;4.20;;;;;;;14.44;100.00;101812.00;6245427;23;20031;-76
2023/06/10 05:09:11;;;;;;;10.45;4.28;;;;;;;14.51;100.00;101804.63;6224463;23;20089;-76
2023/06/10 05:11:55;;;;;;;7.93;4.07;;;;;;;14.60;100.00;101814.84;6248860;23;20039;-74
2023/06/10 05:14:39;;;;;;;9.10;4.35;;;;;;;14.63;100.00;101806.72;6238303;23;20522;-75
2023/06/10 05:17:25;;;;;;;7.47;3.90;;;;;;;14.71;100.00;101802.81;6247832;23;20035;-76
2023/06/10 05:20:09;;;;;;;8.20;4.68;;;;;;;14.80;100.00;101811.25;6214568;23;20050;-76
2023/06/10 05:22:54;;;;;;;7.03;4.25;;;;;;;14.93;100.00;101813.34;6194814;23;20054;-76
2023/06/10 05:25:38;;;;;;;7.72;4.07;;;;;;;15.05;100.00;101815.38;6215624;23;20401;-77
2023/06/10 05:28:22;;;;;;;10.45;4.65;;;;;;;15.18;100.00;101812.13;6223226;23;20026;-76
2023/06/10 05:31:06;;;;;;;7.18;4.28;;;;;;;15.32;100.00;101820.28;6237420;23;20027;-75
2023/06/10 05:33:50;;;;;;;8.57;4.30;;;;;;;15.50;100.00;101809.66;6248024;23;20071;-75
2023/06/10 05:36:34;;;;;;;9.57;4.63;;;;;;;15.69;100.00;101820.22;6226182;23;20031;-76
2023/06/10 05:39:19;;;;;;;8.75;4.63;;;;;;;15.87;100.00;101826.41;6250999;23;20047;-77
2023/06/10 05:42:06;;;;;;;6.85;3.75;;;;;;;15.99;100.00;101824.97;6250710;23;20059;-75
2023/06/10 05:44:50;;;;;;;8.63;4.35;;;;;;;16.09;100.00;101829.81;6227482;23;20023;-76
2023/06/10 05:47:34;;;;;;;7.10;4.22;;;;;;;16.17;100.00;101824.06;6251320;23;20096;-76
2023/06/10 05:50:18;;;;;;;7.55;4.20;;;;;;;16.25;100.00;101827.16;6215616;23;20122;-75
2023/06/10 05:53:02;;;;;;;9.88;4.40;;;;;;;16.42;100.00;101824.47;6248303;23;20019;-76
2023/06/10 05:55:47;;;;;;;7.10;4.60;;;;;;;16.66;100.00;101821.34;6248863;23;20033;-76
2023/06/10 05:58:31;;;;;;;7.40;4.20;;;;;;;16.79;100.00;101812.66;6239672;23;20019;-75
2023/06/10 06:01:15;;;;;;;6.72;3.72;;;;;;;16.91;100.00;101814.63;6248778;22;20081;-74
2023/06/10 06:03:59;;;;;;;5.78;3.80;;;;;;;17.12;100.00;101819.72;6227582;23;20069;-75
2023/06/10 06:07:31;;;;;;;7.45;4.13;;;;;;;17.18;100.00;101818.50;6195441;23;20043;-76
2023/06/10 06:10:58;;;;;;;6.10;3.95;;;;;;;17.28;100.00;101821.50;6216331;23;20102;-76
2023/06/10 06:14:45;;;;;;;6.05;3.63;;;;;;;17.51;100.00;101822.81;6238479;23;20078;-75
2023/06/10 06:18:12;;;;;;;6.70;3.78;;;;;;;17.64;100.00;101810.44;6217394;23;20087;-76
2023/06/10 06:20:56;;;;;;;8.05;3.33;;;;;;;17.89;100.00;101808.94;6238019;23;20097;-76
2023/06/10 06:23:40;;;;;;;6.78;3.90;;;;;;;18.05;100.00;101813.38;6248260;23;20069;-74
2023/06/10 06:26:25;;;;;;;7.72;3.53;;;;;;;18.22;100.00;101815.00;6249366;23;20062;-76
2023/06/10 06:29:09;;;;;;;7.75;4.00;;;;;;;18.46;100.00;101811.72;6242619;23;20077;-74
2023/06/10 06:31:53;;;;;;;5.13;3.92;;;;;;;18.56;100.00;101812.88;6249790;23;20070;-76
2023/06/10 06:34:37;;;;;;;5.95;3.47;;;;;;;18.70;100.00;101819.16;6203251;23;20027;-75
2023/06/10 06:37:22;;;;;;;7.05;3.65;;;;;;;18.94;100.00;101822.06;6247549;23;20034;-74
2023/06/10 06:40:07;;;;;;;9.30;4.22;;;;;;;19.12;100.00;101820.00;6237716;23;20085;-76
2023/06/10 06:42:54;;;;;;;7.82;3.35;;;;;;;19.24;100.00;101817.47;6237883;23;20519;-75
2023/06/10 06:45:38;;;;;;;7.47;3.78;;;;;;;19.28;100.00;101818.97;6249117;23;20495;-74
2023/06/10 06:48:22;;;;;;;6.05;3.35;;;;;;;19.21;100.00;101814.97;6248413;23;20035;-75
2023/06/10 06:51:06;;;;;;;6.20;3.53;;;;;;;19.36;100.00;101805.91;6248931;23;20216;-75
2023/06/10 06:53:51;;;;;;;5.20;3.42;;;;;;;19.61;100.00;101809.59;6247208;23;20077;-73
2023/06/10 06:56:35;;;;;;;6.25;3.50;;;;;;;19.79;99.83;101823.56;6237320;23;20558;-75
2023/06/10 06:59:19;;;;;;;7.00;3.50;;;;;;;19.91;97.88;101812.94;6215898;22;20498;-74
2023/06/10 07:02:03;;;;;;;5.72;3.20;;;;;;;19.85;98.68;101813.38;6205496;23;20802;-74
2023/06/10 07:04:49;;;;;;;5.60;3.15;;;;;;;19.98;96.63;101813.41;6237552;23;20490;-73
2023/06/10 07:07:33;;;;;;;5.82;3.30;;;;;;;19.98;97.05;101816.94;6235797;23;20557;-74
2023/06/10 07:10:18;;;;;;;4.65;3.47;;;;;;;20.15;96.87;101818.44;6247426;23;20076;-74
2023/06/10 07:13:02;;;;;;;5.43;2.85;;;;;;;20.28;92.90;101822.94;6249715;23;20078;-72
2023/06/10 07:15:46;;;;;;;6.80;3.15;;;;;;;20.35;94.86;101821.53;6215325;23;20035;-74
2023/06/10 07:18:31;;;;;;;8.57;3.15;;;;;;;20.55;94.78;101813.88;6246891;23;20050;-74
2023/06/10 07:21:14;;;;;;;5.60;3.10;;;;;;;20.69;94.10;101815.56;6247218;23;20031;-75
2023/06/10 07:23:58;;;;;;;6.00;3.50;;;;;;;20.86;93.65;101819.72;6247993;23;20081;-75
2023/06/10 07:26:43;;;;;;;6.10;3.33;;;;;;;20.93;91.49;101822.81;6248346;23;20031;-75
2023/06/10 07:29:27;;;;;;;6.55;3.53;;;;;;;21.03;90.56;101824.69;6244385;23;20730;-75
2023/06/10 07:32:11;;;;;;;6.80;3.13;;;;;;;21.15;90.70;101830.13;6214658;23;20027;-74
2023/06/10 07:34:55;;;;;;;4.90;2.90;;;;;;;21.28;91.10;101825.53;6211476;23;20109;-75
2023/06/10 07:37:38;;;;;;;4.72;2.90;;;;;;;21.38;90.14;101825.72;6249828;23;20031;-76
2023/06/10 07:40:24;;;;;;;5.20;3.22;;;;;;;21.50;88.43;101826.59;6248451;23;20011;-75
2023/06/10 07:43:07;;;;;;;5.85;3.47;;;;;;;21.58;88.34;101821.47;6224979;23;20031;-74
2023/06/10 07:45:52;;;;;;;3.45;2.90;;;;;;;21.71;87.27;101823.25;6247960;23;20023;-75
2023/06/10 07:48:36;;;;;;;5.00;3.15;;;;;;;21.86;87.73;101829.28;6225383;23;20038;-75
2023/06/10 07:51:20;;;;;;;4.43;2.83;;;;;;;21.88;84.62;101831.84;6251537;23;20019;-75
2023/06/10 07:54:07;;;;;;;3.80;3.10;;;;;;;21.96;81.56;101829.41;6194198;23;20054;-76
2023/06/10 07:56:52;;;;;;;5.40;2.90;;;;;;;22.07;84.45;101832.09;6247067;23;20051;-74
2023/06/10 07:59:37;;;;;;;5.20;2.67;;;;;;;22.19;82.71;101830.28;6193777;22;20753;-75
2023/06/10 08:02:22;;;;;;;6.10;2.67;;;;;;;22.08;81.79;101831.16;6249946;23;20018;-76
2023/06/10 08:05:15;;;;;;;5.90;2.88;;;;;;;22.19;79.52;101833.00;6248539;23;20031;-73
2023/06/10 08:07:59;;;;;;;5.05;3.28;;;;;;;22.42;81.74;101834.78;6240726;23;20019;-74
2023/06/10 08:10:45;;;;;;;5.35;2.90;;;;;;;22.45;76.14;101840.81;6252321;23;20027;-75
2023/06/10 08:13:29;;;;;;;5.43;3.13;;;;;;;22.21;77.08;101838.25;6195642;23;20015;-76
2023/06/10 08:16:14;;;;;;;6.47;3.00;;;;;;;22.13;75.90;101829.91;6216368;23;20107;-75
2023/06/10 08:18:58;;;;;;;5.18;2.88;;;;;;;22.32;77.98;101831.97;6228545;23;20451;-75
2023/06/10 08:21:42;;;;;;;4.70;2.80;;;;;;;22.54;78.38;101836.53;6250940;23;20035;-75
2023/06/10 08:24:26;;;;;;;4.75;3.10;;;;;;;22.72;76.71;101830.63;6256713;23;20262;-78
2023/06/10 08:27:11;;;;;;;4.88;3.22;;;;;;;22.94;73.57;101829.72;6253943;23;20095;-76
2023/06/10 08:30:00;;;;;;;5.75;2.78;;;;;;;23.05;74.14;101831.53;6222156;23;20174;-77
2023/06/10 08:32:44;;;;;;;7.85;3.10;;;;;;;23.23;74.45;101837.22;6236326;23;20571;-79
2023/06/10 08:35:30;;;;;;;5.22;2.97;;;;;;;23.36;74.02;101847.03;6252503;23;20089;-77
2023/06/10 08:38:22;;;;;;;5.82;3.00;;;;;;;23.37;73.03;101836.06;6219748;23;20034;-81
2023/06/10 08:41:06;;;;;;;5.10;2.88;;;;;;;23.38;73.26;101840.50;6220229;23;20083;-79
2023/06/10 08:44:18;;;;;;;3.47;2.90;;;;;;;23.25;69.06;101839.81;6198457;23;20105;-76
2023/06/10 08:47:11;;;;;;;6.03;3.00;;;;;;;23.38;68.95;101829.72;6250049;23;20142;-76
2023/06/10 08:50:02;;;;;;;4.47;2.65;;;;;;;23.53;72.18;101832.09;6251561;23;20739;-77
2023/06/10 08:52:48;;;;;;;4.55;2.70;;;;;;;23.56;70.89;101843.47;6233970;23;20062;-78
2023/06/10 08:55:36;;;;;;;4.05;2.42;;;;;;;23.60;69.84;101839.50;6230484;23;20074;-79
2023/06/10 08:58:20;;;;;;;2.67;2.28;;;;;;;23.64;69.90;101845.50;6227032;23;20136;-80
2023/06/10 09:01:04;;;;;;;5.72;3.08;;;;;;;23.70;69.35;101838.75;6253291;22;20515;-79
2023/06/10 09:03:49;;;;;;;4.35;2.60;;;;;;;23.83;68.18;101839.41;6220102;23;20035;-81
2023/06/10 09:06:34;;;;;;;3.28;2.65;;;;;;;23.97;68.47;101838.16;6233171;23;20363;-79
2023/06/10 09:09:20;;;;;;;3.53;2.50;;;;;;;24.21;68.37;101839.75;6239995;23;20014;-78
2023/06/10 09:12:04;;;;;;;4.15;2.60;;;;;;;24.41;68.24;101837.13;6234611;23;20089;-79
2023/06/10 09:14:48;;;;;;;4.28;2.63;;;;;;;24.44;65.23;101836.84;6230054;23;20038;-78
2023/06/10 09:17:40;;;;;;;3.10;2.50;;;;;;;24.38;63.06;101834.69;6226181;23;20034;-82
2023/06/10 09:20:24;;;;;;;3.07;2.43;;;;;;;24.30;63.07;101835.38;6259847;23;20014;-80
2023/06/10 09:23:08;;;;;;;4.18;3.03;;;;;;;24.27;61.33;101825.69;6243491;23;21085;-79
2023/06/10 09:25:57;;;;;;;3.72;2.65;;;;;;;24.24;59.58;101823.22;6249631;23;20070;-79
2023/06/10 09:28:44;;;;;;;3.58;2.30;;;;;;;24.31;60.83;101820.00;6246610;23;20022;-81
2023/06/10 09:31:28;;;;;;;5.18;2.40;;;;;;;24.48;59.70;101816.63;6216426;23;20089;-78
2023/06/10 09:34:14;;;;;;;4.78;2.50;;;;;;;24.53;57.95;101824.34;6250686;23;20513;-79
2023/06/10 09:36:58;;;;;;;4.03;2.50;;;;;;;24.59;58.11;101817.50;6226717;23;20019;-79
2023/06/10 09:39:42;;;;;;;4.45;2.67;;;;;;;24.67;58.23;101820.38;6248216;23;20031;-79
2023/06/10 09:42:26;;;;;;;4.47;2.90;;;;;;;24.71;58.31;101819.09;6249212;23;20015;-78
2023/06/10 09:45:10;;;;;;;5.32;2.63;;;;;;;24.74;58.95;101824.25;6238480;23;20364;-78
2023/06/10 09:47:56;;;;;;;3.15;2.55;;;;;;;24.80;58.16;101822.84;6196364;23;20745;-78
2023/06/10 09:50:45;;;;;;;4.30;2.90;;;;;;;24.91;57.15;101832.69;6196955;23;20031;-79
2023/06/10 09:53:33;;;;;;;3.55;2.88;;;;;;;24.80;56.69;101826.41;6238972;23;20015;-79
2023/06/10 09:56:18;;;;;;;4.85;2.95;;;;;;;24.85;57.83;101827.84;6250161;23;20733;-78
2023/06/10 09:59:03;;;;;;;5.95;2.70;;;;;;;24.75;54.61;101834.09;6223003;23;20035;-79
2023/06/10 10:01:54;;;;;;;4.13;3.10;;;;;;;24.53;55.44;101836.00;6226679;23;20054;-77
2023/06/10 10:05:22;;;;;;;2.85;2.50;;;;;;;24.62;56.15;101833.47;6226578;23;20015;-79
2023/06/10 10:08:09;;;;;;;6.20;2.95;;;;;;;24.63;57.10;101827.06;6241350;23;20031;-75
2023/06/10 10:10:53;;;;;;;4.93;2.70;;;;;;;24.52;56.50;101834.28;6249200;23;20523;-76
2023/06/10 10:13:37;;;;;;;3.28;2.53;;;;;;;24.54;57.35;101826.91;6226444;23;20088;-76
2023/06/10 10:16:33;;;;;;;4.43;2.47;;;;;;;24.59;54.03;101817.50;6248936;23;20019;-77
2023/06/10 10:19:29;;;;;;;4.57;2.53;;;;;;;24.51;55.88;101826.34;6248191;23;20023;-77
2023/06/10 10:22:22;;;;;;;2.90;2.47;;;;;;;24.38;54.97;101821.16;6216016;23;20392;-77
2023/06/10 10:25:34;;;;;;;4.78;2.85;;;;;;;24.36;55.74;101828.56;6225362;23;20054;-77
2023/06/10 10:28:20;;;;;;;7.65;3.00;;;;;;;24.46;55.41;101826.72;6240358;23;20015;-75
2023/06/10 10:31:10;;;;;;;3.92;2.58;;;;;;;24.42;54.54;101825.31;6195621;23;20076;-76
2023/06/10 10:34:04;;;;;;;3.80;2.55;;;;;;;24.45;52.93;101825.00;6206315;23;20067;-76
2023/06/10 10:36:49;;;;;;;5.03;2.47;;;;;;;24.43;54.19;101818.91;6249674;23;20023;-76
2023/06/10 10:39:34;;;;;;;3.20;2.15;;;;;;;24.43;54.31;101818.91;6195157;23;20019;-77
2023/06/10 10:42:18;;;;;;;3.53;2.53;;;;;;;24.49;55.00;101815.63;6249007;23;20102;-76
2023/06/10 10:45:03;;;;;;;4.72;2.67;;;;;;;24.46;54.92;101820.47;6227510;23;20019;-77
2023/06/10 10:47:52;;;;;;;4.68;2.65;;;;;;;24.39;54.46;101822.84;6243296;23;20467;-76
2023/06/10 10:50:36;;;;;;;5.00;2.55;;;;;;;24.37;54.75;101805.91;6226455;23;20067;-76
2023/06/10 10:53:20;;;;;;;6.10;2.67;;;;;;;24.49;55.60;101810.22;6195986;23;20027;-77
2023/06/10 10:56:13;;;;;;;3.55;2.45;;;;;;;24.53;52.85;101797.28;6226906;23;20150;-75
2023/06/10 10:59:11;;;;;;;3.50;2.25;;;;;;;24.54;51.96;101810.69;6223184;23;20148;-77
2023/06/10 11:01:56;;;;;;;3.13;2.30;;;;;;;24.61;53.53;101802.84;6238447;23;20531;-77
2023/06/10 11:04:48;;;;;;;3.08;2.30;;;;;;;24.69;52.17;101800.28;6225994;23;20046;-77
2023/06/10 11:07:33;;;;;;;2.92;2.20;;;;;;;24.75;53.33;101798.00;6226179;23;20366;-76
2023/06/10 11:10:20;;;;;;;3.40;2.33;;;;;;;24.91;52.99;101789.38;6226427;23;20050;-76
2023/06/10 11:13:15;;;;;;;5.38;2.50;;;;;;;24.93;48.37;101800.91;6226913;23;20019;-74
2023/06/10 11:16:02;;;;;;;3.17;2.10;;;;;;;24.91;52.27;101794.78;6225562;23;20031;-78
2023/06/10 11:18:53;;;;;;;3.58;2.30;;;;;;;24.95;51.85;101791.66;6215488;23;20019;-76
2023/06/10 11:22:06;;;;;;;3.72;2.42;;;;;;;24.99;49.73;101789.50;6225047;23;20062;-77
2023/06/10 11:24:50;;;;;;;4.80;2.35;;;;;;;25.05;52.41;101788.94;6214506;23;20050;-76
2023/06/10 11:27:40;;;;;;;3.97;2.20;;;;;;;25.05;52.14;101790.81;6216673;23;20086;-76
2023/06/10 11:30:25;;;;;;;3.47;2.50;;;;;;;25.05;52.32;101783.53;6217141;23;20420;-77
2023/06/10 11:33:15;;;;;;;3.63;2.10;;;;;;;24.99;50.42;101789.50;6225033;23;20384;-74
2023/06/10 11:35:59;;;;;;;3.55;2.08;;;;;;;24.92;51.43;101780.25;6216177;23;20076;-77
2023/06/10 11:38:44;;;;;;;3.47;2.20;;;;;;;24.93;50.83;101776.53;6217474;23;20073;-78
2023/06/10 11:41:29;;;;;;;3.80;2.30;;;;;;;24.96;51.18;101781.69;6215303;23;20007;-77
2023/06/10 11:44:13;;;;;;;2.50;2.20;;;;;;;25.00;51.18;101785.81;6215600;23;20428;-76
2023/06/10 11:46:57;;;;;;;2.53;2.05;;;;;;;25.09;51.11;101781.38;6225188;23;20027;-75
2023/06/10 11:49:41;;;;;;;3.75;2.60;;;;;;;25.15;52.10;101777.25;6248098;23;20030;-77
2023/06/10 11:52:39;;;;;;;3.53;2.08;;;;;;;25.17;51.78;101784.22;6248479;23;20391;-76
2023/06/10 11:55:43;;;;;;;3.53;1.92;;;;;;;25.21;51.07;101779.38;6208401;23;20424;-77
2023/06/10 11:58:27;;;;;;;3.33;2.05;;;;;;;25.19;49.60;101770.53;6228270;23;20050;-77
2023/06/10 12:02:07;;;;;;;3.85;2.17;;;;;;;25.13;47.80;101768.41;6173197;23;20067;-78
2023/06/10 12:04:51;;;;;;;2.20;2.00;;;;;;;25.16;49.90;101771.69;6095868;23;20485;-77
2023/06/10 12:07:35;;;;;;;3.85;2.45;;;;;;;25.08;49.39;101764.31;6249567;23;20221;-77
2023/06/10 12:10:19;;;;;;;3.33;2.20;;;;;;;25.20;50.09;101764.13;6225684;23;20113;-76
2023/06/10 12:13:03;;;;;;;2.95;2.00;;;;;;;25.23;48.97;101761.97;6248623;23;20027;-77
2023/06/10 12:15:47;;;;;;;3.13;1.92;;;;;;;25.35;48.72;101762.69;6225730;23;20813;-77
2023/06/10 12:18:53;;;;;;;2.92;1.90;;;;;;;25.39;47.67;101762.41;6226172;23;20751;-75
2023/06/10 12:21:38;;;;;;;3.38;2.00;;;;;;;25.34;47.47;101763.66;6202410;23;20028;-78
2023/06/10 12:24:23;;;;;;;3.75;2.17;;;;;;;25.46;47.30;101755.38;6225314;23;20031;-77
2023/06/10 12:27:14;;;;;;;2.88;2.00;;;;;;;25.47;46.68;101754.38;6225573;23;20082;-77
2023/06/10 12:30:04;;;;;;;3.10;2.20;;;;;;;25.54;48.05;101755.53;6216497;23;20538;-76
2023/06/10 12:32:48;;;;;;;3.08;2.10;;;;;;;25.69;48.15;101744.22;6194088;23;20379;-76
2023/06/10 12:35:32;;;;;;;3.17;2.00;;;;;;;25.79;48.14;101745.03;6215439;23;20050;-76
2023/06/10 12:38:29;;;;;;;4.28;2.22;;;;;;;25.77;44.02;101752.47;6236233;23;20082;-76
2023/06/10 12:41:13;;;;;;;2.50;1.73;;;;;;;25.71;45.18;101743.06;6227076;23;20525;-77
2023/06/10 12:43:58;;;;;;;5.57;1.98;;;;;;;25.64;44.47;101739.25;6248012;23;20019;-75
2023/06/10 12:46:41;;;;;;;4.85;2.17;;;;;;;25.53;46.16;101744.88;6204546;23;20034;-77
2023/06/10 12:49:26;;;;;;;3.60;2.08;;;;;;;25.59;46.64;101749.66;6225352;23;20016;-77